createdAt,value
2019-06-01T00:00:11.264Z,1.62
2019-06-01T00:02:38.539Z,1.52
2019-06-01T00:05:14.062Z,1.80
2019-06-01T00:07:52.006Z,1.47
2019-06-01T00:10:23.441Z,1.90
2019-06-01T00:12:52.630Z,2.05
2019-06-01T00:15:30.543Z,2.00
2019-06-01T00:17:59.106Z,2.08
2019-06-01T00:20:34.927Z,1.77
2019-06-01T00:23:05.244Z,1.80
2019-06-01T00:25:40.412Z,1.98
2019-06-01T00:28:17.910Z,1.90
2019-06-01T00:30:52.534Z,2.02
2019-06-01T00:33:29.023Z,1.87
2019-06-01T00:35:59.713Z,2.17
2019-06-01T00:41:19.866Z,2.02
2019-06-01T00:43:48.821Z,2.20
2019-06-01T00:46:17.566Z,2.25
2019-06-01T00:48:46.188Z,1.87
2019-06-01T00:51:14.758Z,2.05
2019-06-01T00:53:43.421Z,1.82
2019-06-01T00:56:11.949Z,2.20
2019-06-01T00:58:40.502Z,2.47
2019-06-01T01:01:09.150Z,2.00
2019-06-01T01:03:37.770Z,1.90
2019-06-01T01:06:06.349Z,2.00
2019-06-01T01:08:34.899Z,2.17
2019-06-01T01:11:03.540Z,1.90
2019-06-01T01:13:32.096Z,1.95
2019-06-01T01:16:01.139Z,2.10
2019-06-01T01:18:29.761Z,2.17
2019-06-01T01:20:58.409Z,2.10
2019-06-01T01:23:26.967Z,1.82
2019-06-01T01:25:56.584Z,1.60
2019-06-01T01:28:25.461Z,1.80
2019-06-01T01:31:06.817Z,2.00
2019-06-01T01:33:24.153Z,1.90
2019-06-01T01:35:54.088Z,2.20
2019-06-01T01:38:22.801Z,2.10
2019-06-01T01:40:52.112Z,1.90
2019-06-01T01:43:20.749Z,2.20
2019-06-01T01:45:50.546Z,2.15
2019-06-01T01:48:19.272Z,2.30
2019-06-01T01:50:47.751Z,2.15
2019-06-01T01:53:16.329Z,2.45
2019-06-01T01:55:44.878Z,2.60
2019-06-01T01:58:13.483Z,2.40
2019-06-01T02:00:46.797Z,2.15
2019-06-01T02:03:15.614Z,2.08
2019-06-01T02:05:44.267Z,2.40
2019-06-01T02:08:13.034Z,2.20
2019-06-01T02:10:41.647Z,2.35
2019-06-01T02:13:10.206Z,1.92
2019-06-01T02:15:40.974Z,2.05
2019-06-01T02:18:09.777Z,2.15
2019-06-01T02:20:38.328Z,2.25
2019-06-01T02:23:07.042Z,2.35
2019-06-01T02:25:35.916Z,2.12
2019-06-01T02:28:05.979Z,2.30
2019-06-01T02:30:34.456Z,2.17
2019-06-01T02:33:04.599Z,2.25
2019-06-01T02:35:33.547Z,2.40
2019-06-01T02:38:03.022Z,2.20
2019-06-01T02:40:32.506Z,2.33
2019-06-01T02:43:01.570Z,1.92
2019-06-01T02:45:31.511Z,2.37
2019-06-01T02:48:01.764Z,2.87
2019-06-01T02:50:30.346Z,3.47
2019-06-01T02:52:59.423Z,2.58
2019-06-01T02:55:28.048Z,3.35
2019-06-01T02:57:56.605Z,3.35
2019-06-01T03:00:48.000Z,2.30
2019-06-01T03:03:18.119Z,1.98
2019-06-01T03:05:48.032Z,2.52
2019-06-01T03:08:18.842Z,2.33
2019-06-01T03:10:50.267Z,2.30
2019-06-01T03:13:21.686Z,2.25
2019-06-01T03:15:53.307Z,2.17
2019-06-01T03:18:23.428Z,2.30
2019-06-01T03:20:53.972Z,2.10
2019-06-01T03:23:24.320Z,2.27
2019-06-01T03:25:54.506Z,2.00
2019-06-01T03:28:25.018Z,2.08
2019-06-01T03:30:53.585Z,2.10
2019-06-01T03:33:22.141Z,2.17
2019-06-01T03:35:50.775Z,2.37
2019-06-01T03:38:19.311Z,2.30
2019-06-01T03:40:47.793Z,2.35
2019-06-01T03:43:17.205Z,2.30
2019-06-01T03:45:45.673Z,2.27
2019-06-01T03:48:14.229Z,2.20
2019-06-01T03:50:42.706Z,2.60
2019-06-01T03:53:12.195Z,2.47
2019-06-01T03:55:40.816Z,2.50
2019-06-01T03:58:09.670Z,2.20
2019-06-01T04:00:38.200Z,2.33
2019-06-01T04:03:07.193Z,2.40
2019-06-01T04:05:35.794Z,2.02
2019-06-01T04:08:05.519Z,2.40
2019-06-01T04:10:34.189Z,2.00
2019-06-01T04:13:03.521Z,2.12
2019-06-01T04:15:32.328Z,2.10
2019-06-01T04:18:01.910Z,1.90
2019-06-01T04:20:30.580Z,2.12
2019-06-01T04:22:59.052Z,1.85
2019-06-01T04:25:29.257Z,2.10
2019-06-01T04:27:57.808Z,2.00
2019-06-01T04:30:27.554Z,2.15
2019-06-01T04:32:56.025Z,1.87
2019-06-01T04:35:24.590Z,2.20
2019-06-01T04:37:53.164Z,1.87
2019-06-01T04:40:21.737Z,1.72
2019-06-01T04:42:50.281Z,1.55
2019-06-01T04:45:18.863Z,1.65
2019-06-01T04:47:47.400Z,1.77
2019-06-01T04:50:16.042Z,1.75
2019-06-01T04:52:44.580Z,1.98
2019-06-01T04:55:13.155Z,1.85
2019-06-01T04:57:41.693Z,1.90
2019-06-01T05:00:25.116Z,2.25
2019-06-01T05:02:42.052Z,2.05
2019-06-01T05:05:11.271Z,1.72
2019-06-01T05:07:40.000Z,2.17
2019-06-01T05:10:09.623Z,1.98
2019-06-01T05:12:38.165Z,1.82
2019-06-01T05:15:09.893Z,2.10
2019-06-01T05:17:38.600Z,2.53
2019-06-01T05:20:08.311Z,2.00
2019-06-01T05:22:36.929Z,1.82
2019-06-01T05:25:07.089Z,1.90
2019-06-01T05:27:35.656Z,1.75
2019-06-01T05:30:07.326Z,1.70
2019-06-01T05:32:36.046Z,1.70
2019-06-01T05:35:07.593Z,1.52
2019-06-01T05:37:36.357Z,1.20
2019-06-01T05:40:10.584Z,1.30
2019-06-01T05:42:39.192Z,1.37
2019-06-01T05:45:09.121Z,1.45
2019-06-01T05:47:37.993Z,1.50
2019-06-01T05:50:10.688Z,1.20
2019-06-01T05:52:39.502Z,1.45
2019-06-01T05:55:08.535Z,1.42
2019-06-01T05:57:37.146Z,1.25
2019-06-01T06:00:10.882Z,1.20
2019-06-01T06:02:39.631Z,1.50
2019-06-01T06:05:10.505Z,1.60
2019-06-01T06:07:39.196Z,1.00
2019-06-01T06:10:08.448Z,1.07
2019-06-01T06:12:37.130Z,1.00
2019-06-01T06:15:07.729Z,1.45
2019-06-01T06:17:36.272Z,1.30
2019-06-01T06:20:06.322Z,1.20
2019-06-01T06:22:34.869Z,1.32
2019-06-01T06:25:03.870Z,1.30
2019-06-01T06:27:32.453Z,1.07
2019-06-01T06:30:01.001Z,1.20
2019-06-01T06:32:29.573Z,1.10
2019-06-01T06:34:58.040Z,1.40
2019-06-01T06:37:26.616Z,1.02
2019-06-01T06:39:55.164Z,1.00
2019-06-01T06:42:24.455Z,1.60
2019-06-01T06:44:53.085Z,0.90
2019-06-01T06:47:22.905Z,1.17
2019-06-01T06:49:51.602Z,1.12
2019-06-01T06:52:21.286Z,1.25
2019-06-01T06:54:50.093Z,1.10
2019-06-01T06:57:18.658Z,1.10
2019-06-01T06:59:47.400Z,0.90
2019-06-01T07:02:16.760Z,1.17
2019-06-01T07:04:45.449Z,1.17
2019-06-01T07:07:14.038Z,1.00
2019-06-01T07:09:42.588Z,1.00
2019-06-01T07:12:11.094Z,1.00
2019-06-01T07:14:39.631Z,0.98
2019-06-01T07:17:08.200Z,1.30
2019-06-01T07:19:36.677Z,1.05
2019-06-01T07:22:05.269Z,1.20
2019-06-01T07:24:33.806Z,1.00
2019-06-01T07:27:02.558Z,0.98
2019-06-01T07:29:32.380Z,0.98
2019-06-01T07:32:01.070Z,0.80
2019-06-01T07:34:39.758Z,1.02
2019-06-01T07:36:59.991Z,0.95
2019-06-01T07:39:34.613Z,1.00
2019-06-01T07:42:03.453Z,1.10
2019-06-01T07:44:33.249Z,0.88
2019-06-01T07:47:02.141Z,0.90
2019-06-01T07:49:31.202Z,0.85
2019-06-01T07:52:11.779Z,0.72
2019-06-01T07:54:30.026Z,1.10
2019-06-01T07:56:58.586Z,0.80
2019-06-01T07:59:28.310Z,0.88
2019-06-01T08:01:57.710Z,1.05
2019-06-01T08:04:28.097Z,1.10
2019-06-01T08:06:56.511Z,1.07
2019-06-01T08:09:26.525Z,0.90
2019-06-01T08:11:55.480Z,0.80
2019-06-01T08:14:24.517Z,0.90
2019-06-01T08:16:53.112Z,0.70
2019-06-01T08:19:22.061Z,0.70
2019-06-01T08:21:51.485Z,0.80
2019-06-01T08:24:20.034Z,0.60
2019-06-01T08:26:48.549Z,0.90
2019-06-01T08:29:17.098Z,0.70
2019-06-01T08:31:45.593Z,0.90
2019-06-01T08:34:14.145Z,0.98
2019-06-01T08:36:42.634Z,0.60
2019-06-01T08:39:11.116Z,1.00
2019-06-01T08:41:39.656Z,0.80
2019-06-01T08:44:08.661Z,0.70
2019-06-01T08:46:37.117Z,0.82
2019-06-01T08:49:05.752Z,1.00
2019-06-01T08:51:34.325Z,0.70
2019-06-01T08:54:02.885Z,0.68
2019-06-01T08:56:32.287Z,0.80
2019-06-01T08:59:01.036Z,0.70
2019-06-01T09:01:30.583Z,0.70
2019-06-01T09:03:59.205Z,0.98
2019-06-01T09:06:29.043Z,0.75
2019-06-01T09:08:57.625Z,0.85
2019-06-01T09:11:27.031Z,0.70
2019-06-01T09:13:55.628Z,0.60
2019-06-01T09:16:25.506Z,0.88
2019-06-01T09:18:54.144Z,0.80
2019-06-01T09:21:22.633Z,0.80
2019-06-01T09:23:51.144Z,0.95
2019-06-01T09:26:19.841Z,0.70
2019-06-01T09:28:48.408Z,0.60
2019-06-01T09:31:18.210Z,0.68
2019-06-01T09:33:46.776Z,0.62
2019-06-01T09:36:15.250Z,0.60
2019-06-01T09:38:43.834Z,0.82
2019-06-01T09:41:12.458Z,0.80
2019-06-01T09:43:41.096Z,0.62
2019-06-01T09:46:09.632Z,0.70
2019-06-01T09:48:38.209Z,0.65
2019-06-01T09:51:06.771Z,0.70
2019-06-01T09:53:36.117Z,0.85
2019-06-01T09:56:05.466Z,0.72
2019-06-01T09:58:34.565Z,0.80
2019-06-01T10:01:03.313Z,0.70
2019-06-01T10:03:32.434Z,0.72
2019-06-01T10:06:02.417Z,0.60
2019-06-01T10:08:32.614Z,0.72
2019-06-01T10:11:01.494Z,0.80
2019-06-01T10:13:30.432Z,0.70
2019-06-01T10:15:59.037Z,0.93
2019-06-01T10:18:27.550Z,0.70
2019-06-01T10:20:56.030Z,0.70
2019-06-01T10:23:24.637Z,0.95
2019-06-01T10:25:53.172Z,0.82
2019-06-01T10:28:21.660Z,0.70
2019-06-01T10:30:50.129Z,0.90
2019-06-01T10:33:18.616Z,0.72
2019-06-01T10:35:47.122Z,0.80
2019-06-01T10:38:15.598Z,0.80
2019-06-01T10:40:44.166Z,0.80
2019-06-01T10:43:12.665Z,0.90
2019-06-01T10:45:41.993Z,0.90
2019-06-01T10:48:10.745Z,1.02
2019-06-01T10:50:40.604Z,1.10
2019-06-01T10:53:09.256Z,1.12
2019-06-01T10:55:38.361Z,0.72
2019-06-01T10:58:08.280Z,1.20
2019-06-01T11:00:42.120Z,1.00
2019-06-01T11:03:07.112Z,1.30
2019-06-01T11:05:36.739Z,1.10
2019-06-01T11:08:05.412Z,0.90
2019-06-01T11:10:34.862Z,1.00
2019-06-01T11:13:03.605Z,0.93
2019-06-01T11:15:32.917Z,0.90
2019-06-01T11:18:01.623Z,1.00
2019-06-01T11:20:30.184Z,0.82
2019-06-01T11:22:59.828Z,1.12
2019-06-01T11:25:28.409Z,1.12
2019-06-01T11:27:56.973Z,1.02
2019-06-01T11:30:25.696Z,0.88
2019-06-01T11:32:54.275Z,1.02
2019-06-01T11:35:22.841Z,0.93
2019-06-01T11:37:51.385Z,0.90
2019-06-01T11:40:19.889Z,0.95
2019-06-01T11:42:48.457Z,0.80
2019-06-01T11:45:17.036Z,0.85
2019-06-01T11:47:45.599Z,0.90
2019-06-01T11:50:14.416Z,1.10
2019-06-01T11:52:43.251Z,0.90
2019-06-01T11:55:12.810Z,0.90
2019-06-01T11:57:41.596Z,1.17
2019-06-01T12:00:14.813Z,0.78
2019-06-01T12:02:43.836Z,0.88
2019-06-01T12:05:12.928Z,0.70
2019-06-01T12:07:41.932Z,0.70
2019-06-01T12:10:12.265Z,0.80
2019-06-01T12:12:42.226Z,0.80
2019-06-01T12:15:11.477Z,1.00
2019-06-01T12:17:40.656Z,0.90
2019-06-01T12:20:09.930Z,0.80
2019-06-01T12:22:38.780Z,0.50
2019-06-01T12:25:07.519Z,1.07
2019-06-01T12:27:37.191Z,0.78
2019-06-01T12:30:08.311Z,0.88
2019-06-01T12:32:37.849Z,0.75
2019-06-01T12:35:08.306Z,0.90
2019-06-01T12:37:56.163Z,0.60
2019-06-01T12:40:07.881Z,0.88
2019-06-01T12:42:36.490Z,0.70
2019-06-01T12:45:10.372Z,0.98
2019-06-01T12:47:39.902Z,1.10
2019-06-01T12:50:08.903Z,0.60
2019-06-01T12:52:37.507Z,0.70
2019-06-01T12:55:06.756Z,0.80
2019-06-01T12:57:35.356Z,0.85
2019-06-01T13:00:05.453Z,0.70
2019-06-01T13:02:33.953Z,0.80
2019-06-01T13:05:02.419Z,0.80
2019-06-01T13:07:30.992Z,0.70
2019-06-01T13:09:59.611Z,0.70
2019-06-01T13:12:28.187Z,0.70
2019-06-01T13:14:56.754Z,0.75
2019-06-01T13:17:25.339Z,0.80
2019-06-01T13:19:53.899Z,0.72
2019-06-01T13:22:22.833Z,0.80
2019-06-01T13:24:52.054Z,0.78
2019-06-01T13:27:20.857Z,0.72
2019-06-01T13:29:50.187Z,0.78
2019-06-01T13:32:18.918Z,0.60
2019-06-01T13:34:47.552Z,0.60
2019-06-01T13:37:16.114Z,0.60
2019-06-01T13:39:45.185Z,0.65
2019-06-01T13:42:14.885Z,0.70
2019-06-01T13:44:43.460Z,0.70
2019-06-01T13:47:11.961Z,0.80
2019-06-01T13:49:40.544Z,0.60
2019-06-01T13:52:11.340Z,0.65
2019-06-01T13:54:40.308Z,0.50
2019-06-01T13:57:08.941Z,0.70
2019-06-01T13:59:37.496Z,0.70
2019-06-01T14:02:06.333Z,0.60
2019-06-01T14:04:34.881Z,0.90
2019-06-01T14:07:03.387Z,0.60
2019-06-01T14:09:31.961Z,0.60
2019-06-01T14:12:00.530Z,0.60
2019-06-01T14:14:28.999Z,0.80
2019-06-01T14:16:57.496Z,0.60
2019-06-01T14:19:25.970Z,0.68
2019-06-01T14:21:55.702Z,0.55
2019-06-01T14:24:24.421Z,0.70
2019-06-01T14:26:54.248Z,0.62
2019-06-01T14:29:22.929Z,0.65
2019-06-01T14:31:53.517Z,0.60
2019-06-01T14:34:21.715Z,0.70
2019-06-01T14:36:50.536Z,0.70
2019-06-01T14:39:19.328Z,0.78
2019-06-01T14:41:48.910Z,0.80
2019-06-01T14:44:17.585Z,0.65
2019-06-01T14:46:55.080Z,1.02
2019-06-01T14:49:16.407Z,0.80
2019-06-01T14:51:44.956Z,0.50
2019-06-01T14:54:13.524Z,0.80
2019-06-01T14:56:41.993Z,0.70
2019-06-01T14:59:10.498Z,0.68
2019-06-01T15:01:39.073Z,0.70
2019-06-01T15:04:07.659Z,0.70
2019-06-01T15:06:36.225Z,0.70
2019-06-01T15:09:17.605Z,0.80
2019-06-01T15:11:37.713Z,0.70
2019-06-01T15:14:06.200Z,0.72
2019-06-01T15:16:34.687Z,0.65
2019-06-01T15:19:03.265Z,0.60
2019-06-01T15:21:31.754Z,0.55
2019-06-01T15:24:00.348Z,0.78
2019-06-01T15:26:28.960Z,0.70
2019-06-01T15:28:57.452Z,0.70
2019-06-01T15:31:26.005Z,0.70
2019-06-01T15:33:55.228Z,0.70
2019-06-01T15:36:23.802Z,0.68
2019-06-01T15:38:53.540Z,0.60
2019-06-01T15:41:22.248Z,1.32
2019-06-01T15:43:50.943Z,0.88
2019-06-01T15:46:19.474Z,0.88
2019-06-01T15:48:48.044Z,0.82
2019-06-01T15:51:16.260Z,0.60
2019-06-01T15:53:44.764Z,0.72
2019-06-01T15:56:13.305Z,0.85
2019-06-01T15:58:52.240Z,0.47
2019-06-01T16:01:12.062Z,0.70
2019-06-01T16:03:40.570Z,0.60
2019-06-01T16:06:09.036Z,0.60
2019-06-01T16:08:37.617Z,0.80
2019-06-01T16:11:07.447Z,0.82
2019-06-01T16:13:36.008Z,0.90
2019-06-01T16:16:05.252Z,0.80
2019-06-01T16:18:34.025Z,1.15
2019-06-01T16:21:02.573Z,0.80
2019-06-01T16:23:46.190Z,0.93
2019-06-01T16:26:13.255Z,1.00
2019-06-01T16:28:31.877Z,2.05
2019-06-01T16:31:00.556Z,1.02
2019-06-01T16:33:29.131Z,0.85
2019-06-01T16:35:58.737Z,0.98
2019-06-01T16:38:27.470Z,0.93
2019-06-01T16:40:57.022Z,0.80
2019-06-01T16:43:25.789Z,0.80
2019-06-01T16:45:55.550Z,0.90
2019-06-01T16:48:24.224Z,0.88
2019-06-01T16:50:52.781Z,0.90
2019-06-01T16:53:21.401Z,0.70
2019-06-01T16:55:49.992Z,1.02
2019-06-01T16:58:18.544Z,0.90
2019-06-01T17:00:47.118Z,0.78
2019-06-01T17:03:15.682Z,0.80
2019-06-01T17:05:44.731Z,1.32
2019-06-01T17:08:13.702Z,0.90
2019-06-01T17:10:52.092Z,1.00
2019-06-01T17:13:20.733Z,0.90
2019-06-01T17:15:49.369Z,0.90
2019-06-01T17:18:17.849Z,0.65
2019-06-01T17:20:52.151Z,1.02
2019-06-01T17:23:26.812Z,1.40
2019-06-01T17:25:51.090Z,1.00
2019-06-01T17:28:20.704Z,0.70
2019-06-01T17:30:49.466Z,1.20
2019-06-01T17:33:18.197Z,1.50
2019-06-01T17:35:46.687Z,1.40
2019-06-01T17:38:15.229Z,1.00
2019-06-01T17:40:43.805Z,1.02
2019-06-01T17:43:13.205Z,0.98
2019-06-01T17:45:41.967Z,0.93
2019-06-01T17:48:25.809Z,1.00
2019-06-01T17:50:40.972Z,1.07
2019-06-01T17:53:09.512Z,1.30
2019-06-01T17:55:39.338Z,1.50
2019-06-01T17:58:10.065Z,1.00
2019-06-01T18:00:40.733Z,1.05
2019-06-01T18:03:10.243Z,1.20
2019-06-01T18:05:39.088Z,1.32
2019-06-01T18:08:08.168Z,1.60
2019-06-01T18:10:52.570Z,1.90
2019-06-01T18:13:08.667Z,1.77
2019-06-01T18:15:37.549Z,1.77
2019-06-01T18:18:06.646Z,1.65
2019-06-01T18:20:35.840Z,1.40
2019-06-01T18:23:07.205Z,1.62
2019-06-01T18:25:35.676Z,1.50
2019-06-01T18:28:04.591Z,1.30
2019-06-01T18:30:33.291Z,1.40
2019-06-01T18:33:02.951Z,1.50
2019-06-01T18:35:32.442Z,1.65
2019-06-01T18:38:00.989Z,1.77
2019-06-01T18:40:29.552Z,1.70
2019-06-01T18:43:00.840Z,1.70
2019-06-01T18:45:29.643Z,1.50
2019-06-01T18:47:58.344Z,1.82
2019-06-01T18:50:26.976Z,1.75
2019-06-01T18:52:55.455Z,1.70
2019-06-01T18:55:27.292Z,1.77
2019-06-01T18:57:57.285Z,2.17
2019-06-01T19:00:25.935Z,2.08
2019-06-01T19:02:54.568Z,1.60
2019-06-01T19:05:23.060Z,1.82
2019-06-01T19:07:51.528Z,1.87
2019-06-01T19:10:21.648Z,2.70
2019-06-01T19:12:50.210Z,2.42
2019-06-01T19:15:26.705Z,2.35
2019-06-01T19:17:49.153Z,2.87
2019-06-01T19:20:17.764Z,2.70
2019-06-01T19:22:46.285Z,2.45
2019-06-01T19:25:16.972Z,2.40
2019-06-01T19:27:45.820Z,2.10
2019-06-01T19:30:17.130Z,2.47
2019-06-01T19:32:45.843Z,2.05
2019-06-01T19:35:15.385Z,2.25
2019-06-01T19:37:44.276Z,1.87
2019-06-01T19:40:13.376Z,2.27
2019-06-01T19:42:42.063Z,1.98
2019-06-01T19:45:23.652Z,2.15
2019-06-01T19:47:41.028Z,1.50
2019-06-01T19:50:10.299Z,1.75
2019-06-01T19:52:38.916Z,1.90
2019-06-01T19:55:08.890Z,1.70
2019-06-01T19:57:37.568Z,2.00
2019-06-01T20:00:08.058Z,2.10
2019-06-01T20:02:36.690Z,1.95
2019-06-01T20:05:06.363Z,2.10
2019-06-01T20:07:34.875Z,2.37
2019-06-01T20:10:04.617Z,2.10
2019-06-01T20:12:33.124Z,2.62
2019-06-01T20:15:01.670Z,2.40
2019-06-01T20:17:30.167Z,2.40
2019-06-01T20:19:58.743Z,2.45
2019-06-01T20:22:27.240Z,2.50
2019-06-01T20:24:55.704Z,2.62
2019-06-01T20:27:24.201Z,2.60
2019-06-01T20:29:54.208Z,2.37
2019-06-01T20:32:22.701Z,1.90
2019-06-01T20:34:51.242Z,2.50
2019-06-01T20:37:20.156Z,2.10
2019-06-01T20:39:48.768Z,2.25
2019-06-01T20:42:26.385Z,2.60
2019-06-01T20:44:47.508Z,2.40
2019-06-01T20:47:16.628Z,2.50
2019-06-01T20:49:45.312Z,2.45
2019-06-01T20:52:14.684Z,2.20
2019-06-01T20:54:43.350Z,2.75
2019-06-01T20:57:13.258Z,2.40
2019-06-01T20:59:41.881Z,2.47
2019-06-01T21:02:10.444Z,2.67
2019-06-01T21:04:38.916Z,2.60
2019-06-01T21:07:07.409Z,2.83
2019-06-01T21:09:44.098Z,2.37
2019-06-01T21:12:13.813Z,2.35
2019-06-01T21:14:42.405Z,2.45
2019-06-01T21:17:10.954Z,2.37
2019-06-01T21:19:39.653Z,2.40
2019-06-01T21:22:08.255Z,2.52
2019-06-01T21:24:36.824Z,2.50
2019-06-01T21:27:05.436Z,2.70
2019-06-01T21:29:33.928Z,2.83
2019-06-01T21:32:02.414Z,2.90
2019-06-01T21:34:30.968Z,2.58
2019-06-01T21:36:59.431Z,2.95
2019-06-01T21:39:30.129Z,2.55
2019-06-01T21:41:58.605Z,3.25
2019-06-01T21:44:27.165Z,2.90
2019-06-01T21:46:55.633Z,2.92
2019-06-01T21:49:24.192Z,2.90
2019-06-01T21:51:53.188Z,2.75
2019-06-01T21:54:22.277Z,2.65
2019-06-01T21:56:50.890Z,3.17
2019-06-01T21:59:20.512Z,2.90
2019-06-01T22:01:49.765Z,2.87
2019-06-01T22:04:18.736Z,2.58
2019-06-01T22:06:47.418Z,2.77
2019-06-01T22:09:17.116Z,2.42
2019-06-01T22:11:45.833Z,2.62
2019-06-01T22:14:14.352Z,2.50
2019-06-01T22:16:42.897Z,2.30
2019-06-01T22:19:11.392Z,3.02
2019-06-01T22:21:39.928Z,2.75
2019-06-01T22:24:08.416Z,2.40
2019-06-01T22:26:36.884Z,2.30
2019-06-01T22:29:05.369Z,2.42
2019-06-01T22:31:33.840Z,2.33
2019-06-01T22:34:02.332Z,2.58
2019-06-01T22:36:31.659Z,2.62
2019-06-01T22:39:00.389Z,2.60
2019-06-01T22:41:28.928Z,2.72
2019-06-01T22:43:57.426Z,2.33
2019-06-01T22:46:26.812Z,2.45
2019-06-01T22:48:55.481Z,2.22
2019-06-01T22:51:24.933Z,2.70
2019-06-01T22:53:53.701Z,2.70
2019-06-01T22:56:23.209Z,2.70
2019-06-01T22:58:52.212Z,2.80
2019-06-01T23:01:21.094Z,3.12
2019-06-01T23:03:49.786Z,2.80
2019-06-01T23:06:18.349Z,2.60
2019-06-01T23:08:46.980Z,2.40
2019-06-01T23:11:15.600Z,2.60
2019-06-01T23:13:53.494Z,2.60
2019-06-01T23:16:14.308Z,2.90
2019-06-01T23:18:42.904Z,2.70
2019-06-01T23:21:11.451Z,3.00
2019-06-01T23:23:40.811Z,2.90
2019-06-01T23:26:09.381Z,2.67
2019-06-01T23:28:38.888Z,2.25
2019-06-01T23:31:07.548Z,2.37
2019-06-01T23:33:36.102Z,2.70
2019-06-01T23:36:04.756Z,2.42
2019-06-01T23:38:33.319Z,2.62
2019-06-01T23:41:01.888Z,2.60
2019-06-01T23:43:30.922Z,2.40
2019-06-01T23:45:59.729Z,2.92
2019-06-01T23:48:29.340Z,2.80
2019-06-01T23:50:58.061Z,2.55
2019-06-01T23:53:27.489Z,2.55
2019-06-01T23:55:56.120Z,2.50
2019-06-01T23:58:25.917Z,2.62
